Time;durP1;ratioP1;P1;durP2;ratioP2;P2;SDS_P1;SDS_P2;PMS_P1;PMS_P2;Temp;Humidity;BMP_temperature;BMP_pressure;BME280_temperature;BME280_humidity;BME280_pressure;Samples;Min_cycle;Max_cycle;Signal;HPM_P1;HPM_P2
2021/11/10 00:00:19;;;;;;;9.00;3.78;;;;;;;;;;4839367;29;20075;-79
2021/11/10 00:02:44;;;;;;;27.27;7.13;;;;;;;;;;4855629;29;20038;-75
2021/11/10 00:05:20;;;;;;;15.20;5.13;;;;;;;;;;4838899;29;20541;-74
2021/11/10 00:07:45;;;;;;;15.10;5.57;;;;;;;;;;4838936;29;20041;-77
2021/11/10 00:10:13;;;;;;;13.35;4.75;;;;;;;;;;4838693;29;20045;-76
2021/11/10 00:12:39;;;;;;;7.05;3.20;;;;;;;;;;4808260;29;20054;-76
2021/11/10 00:15:12;;;;;;;9.02;4.13;;;;;;;;;;4838979;29;20057;-75
2021/11/10 00:17:38;;;;;;;13.65;4.13;;;;;;;;;;4839104;29;20034;-76
2021/11/10 00:20:08;;;;;;;11.57;4.05;;;;;;;;;;4824193;29;20390;-76
2021/11/10 00:22:34;;;;;;;12.95;4.53;;;;;;;;;;4854924;29;20042;-75
2021/11/10 00:25:07;;;;;;;14.18;5.93;;;;;;;;;;4839112;29;20105;-75
2021/11/10 00:27:32;;;;;;;9.18;3.15;;;;;;;;;;4838578;29;20408;-77
2021/11/10 00:30:00;;;;;;;7.43;3.03;;;;;;;;;;4838776;29;20038;-77
2021/11/10 00:32:32;;;;;;;8.43;3.90;;;;;;;;;;4805280;29;20055;-77
2021/11/10 00:34:59;;;;;;;17.85;5.40;;;;;;;;;;4820479;29;20038;-75
2021/11/10 00:37:25;;;;;;;14.52;5.22;;;;;;;;;;4820278;29;20035;-74
2021/11/10 00:39:57;;;;;;;12.50;5.35;;;;;;;;;;4836825;29;20409;-75
2021/11/10 00:42:23;;;;;;;11.95;3.80;;;;;;;;;;4789606;29;20061;-77
2021/11/10 00:45:06;;;;;;;9.93;3.80;;;;;;;;;;4820355;29;20468;-74
2021/11/10 00:47:31;;;;;;;12.48;3.80;;;;;;;;;;4819965;29;20030;-76
2021/11/10 00:50:06;;;;;;;8.55;4.00;;;;;;;;;;4820444;29;20389;-77
2021/11/10 00:52:32;;;;;;;13.05;4.75;;;;;;;;;;4836390;29;20038;-75
2021/11/10 00:55:06;;;;;;;8.68;4.60;;;;;;;;;;4790420;29;20042;-76
2021/11/10 00:57:32;;;;;;;7.60;3.45;;;;;;;;;;4836073;29;20030;-77
2021/11/10 00:59:58;;;;;;;16.00;4.38;;;;;;;;;;4836348;29;20047;-74
2021/11/10 01:02:24;;;;;;;16.85;5.70;;;;;;;;;;4819846;29;20118;-76
2021/11/10 01:04:51;;;;;;;11.57;4.68;;;;;;;;;;4804855;29;20042;-77
2021/11/10 01:07:17;;;;;;;15.30;5.50;;;;;;;;;;4804484;29;20070;-77
2021/11/10 01:09:44;;;;;;;7.30;4.35;;;;;;;;;;4820006;29;20106;-77
2021/11/10 01:12:13;;;;;;;8.35;4.35;;;;;;;;;;4819776;29;20441;-75
2021/11/10 01:14:54;;;;;;;14.13;5.15;;;;;;;;;;4836423;29;20051;-76
2021/11/10 01:17:19;;;;;;;11.55;4.88;;;;;;;;;;4804942;29;20050;-75
2021/11/10 01:19:48;;;;;;;11.13;4.95;;;;;;;;;;4836272;29;20042;-76
2021/11/10 01:22:14;;;;;;;12.00;5.07;;;;;;;;;;4819463;29;20034;-76
2021/11/10 01:24:45;;;;;;;8.90;4.68;;;;;;;;;;4836289;29;20049;-75
2021/11/10 01:27:11;;;;;;;12.63;5.35;;;;;;;;;;4804661;29;20035;-75
2021/11/10 01:29:37;;;;;;;12.55;5.45;;;;;;;;;;4819778;29;20039;-77
2021/11/10 01:32:05;;;;;;;11.40;4.32;;;;;;;;;;4834451;29;20073;-76
2021/11/10 01:34:30;;;;;;;10.85;4.47;;;;;;;;;;4822266;29;20044;-75
2021/11/10 01:36:58;;;;;;;13.88;5.18;;;;;;;;;;4837720;29;20033;-76
2021/11/10 01:39:24;;;;;;;9.10;3.80;;;;;;;;;;4837067;29;20049;-75
2021/11/10 01:41:53;;;;;;;11.07;5.18;;;;;;;;;;4821779;29;20038;-77
2021/11/10 01:44:25;;;;;;;7.97;5.20;;;;;;;;;;4837778;29;20034;-75
2021/11/10 01:46:56;;;;;;;12.05;5.15;;;;;;;;;;4835736;29;20043;-75
2021/11/10 01:49:22;;;;;;;18.20;5.45;;;;;;;;;;4837031;29;20066;-75
2021/11/10 01:51:50;;;;;;;11.07;4.88;;;;;;;;;;4853579;29;20060;-75
2021/11/10 01:54:18;;;;;;;10.35;4.63;;;;;;;;;;4837157;29;20090;-77
2021/11/10 01:56:44;;;;;;;10.02;4.78;;;;;;;;;;4837222;29;20040;-75
2021/11/10 01:59:11;;;;;;;14.43;5.70;;;;;;;;;;4837061;29;20046;-75
2021/11/10 02:01:46;;;;;;;15.68;6.25;;;;;;;;;;4836807;29;20042;-75
2021/11/10 02:04:18;;;;;;;10.65;5.13;;;;;;;;;;4853619;29;20385;-75
2021/11/10 02:06:43;;;;;;;11.23;4.88;;;;;;;;;;4853298;29;20045;-75
2021/11/10 02:09:09;;;;;;;14.77;5.60;;;;;;;;;;4837934;29;20038;-76
2021/11/10 02:11:35;;;;;;;11.68;5.32;;;;;;;;;;4853209;29;20046;-76
2021/11/10 02:14:06;;;;;;;12.50;6.10;;;;;;;;;;4836958;29;20018;-76
2021/11/10 02:16:36;;;;;;;11.05;6.30;;;;;;;;;;4853541;29;20038;-75
2021/11/10 02:19:05;;;;;;;16.58;6.18;;;;;;;;;;4821970;29;20094;-75
2021/11/10 02:21:31;;;;;;;13.63;6.53;;;;;;;;;;4837060;29;20154;-76
2021/11/10 02:23:59;;;;;;;12.20;6.20;;;;;;;;;;4821635;29;20030;-76
2021/11/10 02:26:25;;;;;;;11.38;6.75;;;;;;;;;;4836729;29;20034;-76
2021/11/10 02:28:51;;;;;;;17.83;6.13;;;;;;;;;;4853700;29;20116;-76
2021/11/10 02:31:18;;;;;;;12.25;6.13;;;;;;;;;;4836527;29;20122;-76
2021/11/10 02:33:45;;;;;;;15.75;6.55;;;;;;;;;;4838733;29;20098;-76
2021/11/10 02:36:13;;;;;;;11.75;5.90;;;;;;;;;;4840581;29;20122;-74
2021/11/10 02:38:39;;;;;;;17.95;7.85;;;;;;;;;;4840152;29;20026;-74
2021/11/10 02:41:05;;;;;;;14.30;6.75;;;;;;;;;;4840287;29;20506;-75
2021/11/10 02:43:30;;;;;;;20.15;8.02;;;;;;;;;;4839981;29;20090;-76
2021/11/10 02:45:57;;;;;;;17.45;7.65;;;;;;;;;;4856223;29;20034;-75
2021/11/10 02:48:23;;;;;;;15.93;6.40;;;;;;;;;;4839494;29;20061;-76
2021/11/10 02:50:56;;;;;;;14.55;7.60;;;;;;;;;;4840001;29;20038;-75
2021/11/10 02:53:22;;;;;;;19.50;8.00;;;;;;;;;;4840043;29;20030;-75
2021/11/10 02:56:03;;;;;;;18.10;7.55;;;;;;;;;;4825153;29;20038;-75
2021/11/10 02:58:33;;;;;;;12.27;6.07;;;;;;;;;;4840024;29;20086;-77
2021/11/10 03:01:03;;;;;;;14.55;6.68;;;;;;;;;;4839697;29;20042;-73
2021/11/10 03:03:29;;;;;;;19.45;6.68;;;;;;;;;;4839973;29;20121;-73
2021/11/10 03:05:59;;;;;;;17.88;8.90;;;;;;;;;;4824520;29;20061;-74
2021/11/10 03:08:25;;;;;;;15.23;6.95;;;;;;;;;;4839402;29;20064;-74
2021/11/10 03:10:51;;;;;;;16.98;8.52;;;;;;;;;;4824339;29;20038;-73
2021/11/10 03:13:18;;;;;;;13.88;5.90;;;;;;;;;;4839204;29;20034;-73
2021/11/10 03:15:52;;;;;;;14.35;7.93;;;;;;;;;;4839545;29;20041;-73
2021/11/10 03:18:18;;;;;;;16.10;7.05;;;;;;;;;;4856075;29;20099;-75
2021/11/10 03:20:46;;;;;;;15.75;6.40;;;;;;;;;;4856151;29;20065;-73
2021/11/10 03:23:12;;;;;;;15.57;6.70;;;;;;;;;;4839488;29;20041;-78
2021/11/10 03:25:38;;;;;;;13.82;6.75;;;;;;;;;;4824175;29;20038;-74
2021/11/10 03:28:04;;;;;;;14.05;7.30;;;;;;;;;;4824812;29;20034;-74
2021/11/10 03:30:34;;;;;;;13.90;7.70;;;;;;;;;;4823372;29;20065;-75
2021/11/10 03:32:59;;;;;;;12.07;6.13;;;;;;;;;;4838884;29;20042;-75
2021/11/10 03:35:28;;;;;;;14.05;7.07;;;;;;;;;;4838984;29;20049;-76
2021/11/10 03:37:54;;;;;;;20.42;8.48;;;;;;;;;;4823455;29;20042;-76
2021/11/10 03:40:20;;;;;;;12.52;6.35;;;;;;;;;;4839298;29;20104;-75
2021/11/10 03:42:45;;;;;;;15.10;5.95;;;;;;;;;;4823898;29;20062;-77
2021/11/10 03:45:11;;;;;;;15.52;6.93;;;;;;;;;;4838497;29;20195;-75
2021/11/10 03:47:37;;;;;;;16.58;7.97;;;;;;;;;;4838195;29;20124;-76
2021/11/10 03:50:05;;;;;;;15.35;7.82;;;;;;;;;;4838722;29;20036;-75
2021/11/10 03:52:32;;;;;;;12.05;7.05;;;;;;;;;;4823811;29;20038;-76
2021/11/10 03:55:08;;;;;;;13.02;6.35;;;;;;;;;;4839086;29;20034;-76
2021/11/10 03:57:34;;;;;;;17.98;7.03;;;;;;;;;;4838803;29;20137;-75
2021/11/10 04:00:00;;;;;;;12.73;7.45;;;;;;;;;;4855139;29;20029;-76
2021/11/10 04:02:26;;;;;;;11.52;6.45;;;;;;;;;;4823473;29;20030;-74
2021/11/10 04:04:52;;;;;;;18.88;9.30;;;;;;;;;;4839340;29;20040;-75
2021/11/10 04:07:17;;;;;;;16.42;6.80;;;;;;;;;;4855325;29;20498;-76
2021/11/10 04:09:45;;;;;;;15.38;6.70;;;;;;;;;;4838402;29;20038;-76
2021/11/10 04:12:11;;;;;;;11.88;5.47;;;;;;;;;;4855454;29;20038;-75
2021/11/10 04:14:39;;;;;;;12.52;6.43;;;;;;;;;;4823882;29;20041;-76
2021/11/10 04:17:07;;;;;;;13.75;5.65;;;;;;;;;;4823375;29;20030;-77
2021/11/10 04:19:33;;;;;;;18.85;7.90;;;;;;;;;;4823901;29;20075;-75
2021/11/10 04:21:59;;;;;;;12.48;5.65;;;;;;;;;;4855214;29;20041;-76
2021/11/10 04:24:26;;;;;;;15.30;7.20;;;;;;;;;;4838377;29;20034;-76
2021/11/10 04:26:52;;;;;;;12.75;5.50;;;;;;;;;;4838435;29;20038;-76
2021/11/10 04:29:18;;;;;;;17.13;7.28;;;;;;;;;;4838347;29;20046;-77
2021/11/10 04:31:52;;;;;;;15.75;7.22;;;;;;;;;;4838108;29;20050;-78
2021/11/10 04:34:19;;;;;;;14.52;7.45;;;;;;;;;;4823606;29;20038;-75
2021/11/10 04:36:48;;;;;;;12.02;6.70;;;;;;;;;;4838144;29;20030;-76
2021/11/10 04:39:13;;;;;;;18.98;8.43;;;;;;;;;;4838554;29;20037;-74
2021/11/10 04:41:39;;;;;;;17.65;8.48;;;;;;;;;;4823230;29;20066;-75
2021/11/10 04:44:05;;;;;;;17.27;8.10;;;;;;;;;;4855074;29;20115;-77
2021/11/10 04:46:32;;;;;;;22.67;9.43;;;;;;;;;;4823365;29;20038;-78
2021/11/10 04:48:59;;;;;;;18.38;8.65;;;;;;;;;;4838420;29;20041;-75
2021/11/10 04:54:44;;;;;;;18.77;10.07;;;;;;;;;;4854753;29;20041;-77
2021/11/10 04:57:11;;;;;;;18.90;9.48;;;;;;;;;;4854032;29;20061;-76
2021/11/10 04:59:37;;;;;;;19.67;9.80;;;;;;;;;;4838246;29;20045;-75
2021/11/10 05:04:30;;;;;;;14.55;6.35;;;;;;;;;;4838042;29;20454;-79
2021/11/10 05:06:58;;;;;;;17.35;9.15;;;;;;;;;;4837907;29;20034;-76
2021/11/10 05:09:24;;;;;;;20.27;9.07;;;;;;;;;;4854011;29;20033;-75
2021/11/10 05:11:50;;;;;;;16.23;8.70;;;;;;;;;;4854117;29;20313;-76
2021/11/10 05:14:16;;;;;;;21.67;11.10;;;;;;;;;;4807123;29;20352;-76
2021/11/10 05:16:47;;;;;;;15.15;8.05;;;;;;;;;;4854175;29;20034;-77
2021/11/10 05:19:13;;;;;;;17.38;8.77;;;;;;;;;;4821835;29;20321;-77
2021/11/10 05:21:39;;;;;;;22.70;10.98;;;;;;;;;;4838119;29;20467;-78
2021/11/10 05:24:05;;;;;;;18.75;9.20;;;;;;;;;;4854196;29;20046;-79
2021/11/10 05:26:31;;;;;;;21.83;10.00;;;;;;;;;;4853638;29;20038;-78
2021/11/10 05:28:57;;;;;;;20.52;9.60;;;;;;;;;;4837648;29;20154;-77
2021/11/10 05:31:24;;;;;;;25.70;12.50;;;;;;;;;;4821939;29;20065;-75
2021/11/10 05:33:50;;;;;;;31.95;13.10;;;;;;;;;;4854362;29;20038;-76
2021/11/10 05:36:17;;;;;;;19.52;8.80;;;;;;;;;;4853624;29;20122;-78
2021/11/10 05:38:43;;;;;;;24.48;11.35;;;;;;;;;;4836740;29;20045;-75
2021/11/10 05:41:09;;;;;;;15.55;8.15;;;;;;;;;;4837181;29;20077;-78
2021/11/10 05:43:35;;;;;;;12.82;7.78;;;;;;;;;;4837689;29;20127;-76
2021/11/10 05:46:01;;;;;;;21.58;10.32;;;;;;;;;;4837962;29;20034;-75
2021/11/10 05:48:27;;;;;;;17.90;9.05;;;;;;;;;;4837077;29;20041;-76
2021/11/10 05:51:11;;;;;;;23.92;11.30;;;;;;;;;;4837861;29;20105;-76
2021/11/10 05:53:43;;;;;;;;;;;;;;;;;;4837920;29;20034;-75
2021/11/10 05:56:19;;;;;;;22.02;10.50;;;;;;;;;;4854417;29;19912;-75
2021/11/10 05:58:45;;;;;;;16.50;8.77;;;;;;;;;;4837620;29;20034;-77
2021/11/10 06:01:11;;;;;;;19.00;9.55;;;;;;;;;;4836909;29;20049;-75
2021/11/10 06:03:37;;;;;;;19.90;8.00;;;;;;;;;;4822309;29;20070;-77
2021/11/10 06:06:30;;;;;;;23.27;10.35;;;;;;;;;;4837788;29;20059;-75
2021/11/10 06:08:55;;;;;;;19.77;8.55;;;;;;;;;;4841606;29;20046;-76
2021/11/10 06:11:23;;;;;;;21.55;9.63;;;;;;;;;;4841469;29;20065;-78
2021/11/10 06:13:49;;;;;;;19.25;8.93;;;;;;;;;;4841044;29;20121;-76
2021/11/10 06:16:15;;;;;;;15.68;8.45;;;;;;;;;;4840116;29;20030;-78
2021/11/10 06:18:43;;;;;;;18.02;9.63;;;;;;;;;;4857422;29;20034;-76
2021/11/10 06:21:13;;;;;;;19.55;8.05;;;;;;;;;;4840209;29;20026;-77
2021/11/10 06:23:38;;;;;;;16.02;7.18;;;;;;;;;;4840418;29;20026;-76
2021/11/10 06:26:05;;;;;;;17.65;7.07;;;;;;;;;;4857122;29;20048;-77
2021/11/10 06:28:31;;;;;;;23.67;9.23;;;;;;;;;;4839981;29;20033;-76
2021/11/10 06:31:00;;;;;;;17.98;7.00;;;;;;;;;;4840343;29;20042;-77
2021/11/10 06:33:25;;;;;;;20.65;8.10;;;;;;;;;;4840063;29;20269;-75
2021/11/10 06:35:51;;;;;;;10.30;5.55;;;;;;;;;;4840084;29;20434;-75
2021/11/10 06:38:17;;;;;;;24.83;8.75;;;;;;;;;;4840060;29;20038;-72
2021/11/10 06:40:49;;;;;;;22.35;9.80;;;;;;;;;;4856148;29;20049;-75
2021/11/10 06:43:14;;;;;;;15.02;6.85;;;;;;;;;;4855981;29;20046;-75
2021/11/10 06:45:42;;;;;;;19.98;7.13;;;;;;;;;;4839780;29;20037;-76
2021/11/10 06:48:08;;;;;;;20.20;8.07;;;;;;;;;;4824688;29;20038;-75
2021/11/10 06:50:35;;;;;;;21.60;8.57;;;;;;;;;;4825277;29;20206;-75
2021/11/10 06:53:01;;;;;;;21.02;8.13;;;;;;;;;;4839698;29;20049;-78
2021/11/10 06:55:27;;;;;;;10.30;5.93;;;;;;;;;;4809349;29;20026;-79
2021/11/10 06:57:54;;;;;;;14.68;6.75;;;;;;;;;;4856095;29;20081;-76
2021/11/10 07:00:20;;;;;;;11.85;6.25;;;;;;;;;;4824767;29;20038;-77
2021/11/10 07:02:49;;;;;;;21.05;7.65;;;;;;;;;;4823980;29;20070;-75
2021/11/10 07:05:15;;;;;;;22.45;8.35;;;;;;;;;;4824390;29;20037;-77
2021/11/10 07:07:41;;;;;;;21.70;7.65;;;;;;;;;;4839806;29;20040;-74
2021/11/10 07:10:07;;;;;;;15.88;7.97;;;;;;;;;;4839650;29;20094;-75
2021/11/10 07:12:33;;;;;;;16.77;7.97;;;;;;;;;;4839228;29;20057;-75
2021/11/10 07:14:59;;;;;;;17.00;5.68;;;;;;;;;;4855668;29;20158;-78
2021/11/10 07:17:24;;;;;;;17.98;6.88;;;;;;;;;;4823747;29;20178;-74
2021/11/10 07:19:51;;;;;;;14.60;6.47;;;;;;;;;;4838990;29;20063;-76
2021/11/10 07:22:18;;;;;;;13.85;6.50;;;;;;;;;;4824695;29;20046;-75
2021/11/10 07:24:44;;;;;;;10.82;5.43;;;;;;;;;;4809872;29;20080;-73
2021/11/10 07:27:15;;;;;;;16.48;6.63;;;;;;;;;;4840146;29;20033;-73
2021/11/10 07:29:42;;;;;;;10.90;6.47;;;;;;;;;;4840232;29;20070;-75
2021/11/10 07:32:14;;;;;;;15.43;6.45;;;;;;;;;;4839566;29;20057;-75
2021/11/10 07:34:40;;;;;;;13.73;5.88;;;;;;;;;;4840276;29;20034;-76
2021/11/10 07:37:20;;;;;;;13.68;5.72;;;;;;;;;;4856354;29;20090;-75
2021/11/10 07:39:46;;;;;;;12.70;6.35;;;;;;;;;;4840135;29;20128;-77
2021/11/10 07:42:19;;;;;;;9.77;3.92;;;;;;;;;;4824078;29;20468;-75
2021/11/10 07:44:45;;;;;;;17.92;6.68;;;;;;;;;;4824638;29;20110;-73
2021/11/10 07:47:19;;;;;;;21.90;7.50;;;;;;;;;;4839774;29;20476;-72
2021/11/10 07:49:45;;;;;;;17.40;6.60;;;;;;;;;;4839925;29;20030;-74
2021/11/10 07:52:13;;;;;;;16.10;7.68;;;;;;;;;;4839837;29;20133;-74
2021/11/10 07:54:40;;;;;;;15.98;5.82;;;;;;;;;;4840072;29;20030;-74
2021/11/10 07:57:34;;;;;;;13.45;6.03;;;;;;;;;;4809841;29;20042;-74
2021/11/10 08:00:01;;;;;;;16.27;6.68;;;;;;;;;;4839022;29;20038;-75
2021/11/10 08:02:30;;;;;;;13.90;5.90;;;;;;;;;;4823706;29;20046;-74
2021/11/10 08:04:56;;;;;;;13.40;4.75;;;;;;;;;;4855812;29;20688;-73
2021/11/10 08:07:22;;;;;;;12.88;6.43;;;;;;;;;;4838967;29;20045;-73
2021/11/10 08:09:48;;;;;;;14.15;6.57;;;;;;;;;;4839331;29;20038;-76
2021/11/10 08:12:14;;;;;;;15.02;6.63;;;;;;;;;;4839009;29;20070;-75
2021/11/10 08:14:39;;;;;;;15.30;7.38;;;;;;;;;;4838766;29;20054;-72
2021/11/10 08:17:19;;;;;;;18.60;6.50;;;;;;;;;;4838903;29;20480;-73
2021/11/10 08:19:45;;;;;;;16.13;6.15;;;;;;;;;;4855533;29;20033;-73
2021/11/10 08:22:25;;;;;;;16.60;6.38;;;;;;;;;;4838255;29;20114;-75
2021/11/10 08:24:51;;;;;;;16.83;6.50;;;;;;;;;;4808537;29;20531;-76
2021/11/10 08:27:17;;;;;;;20.45;6.95;;;;;;;;;;4823704;29;20049;-73
2021/11/10 08:29:43;;;;;;;12.60;6.13;;;;;;;;;;4838913;29;20113;-73
2021/11/10 08:32:10;;;;;;;14.32;6.70;;;;;;;;;;4823583;29;20058;-74
2021/11/10 08:34:37;;;;;;;18.48;6.35;;;;;;;;;;4838797;29;20045;-73
2021/11/10 08:37:05;;;;;;;15.75;6.90;;;;;;;;;;4839110;29;20068;-75
2021/11/10 08:39:32;;;;;;;16.65;6.63;;;;;;;;;;4823098;29;20045;-74
2021/11/10 08:42:04;;;;;;;11.13;5.70;;;;;;;;;;4838359;29;20041;-73
2021/11/10 08:44:40;;;;;;;16.33;6.63;;;;;;;;;;4838886;29;20040;-74
2021/11/10 08:47:06;;;;;;;14.15;5.95;;;;;;;;;;4819984;29;20081;-75
2021/11/10 08:49:39;;;;;;;16.13;5.18;;;;;;;;;;4839009;29;20045;-74
2021/11/10 08:52:05;;;;;;;19.60;6.75;;;;;;;;;;4838458;29;20105;-74
2021/11/10 08:54:38;;;;;;;10.48;4.90;;;;;;;;;;4838835;29;20070;-73
2021/11/10 08:57:05;;;;;;;15.63;6.78;;;;;;;;;;4838786;29;20042;-72
2021/11/10 08:59:37;;;;;;;8.18;4.65;;;;;;;;;;4838944;29;20061;-75
2021/11/10 09:02:03;;;;;;;16.45;6.22;;;;;;;;;;4838100;29;20029;-76
2021/11/10 09:04:38;;;;;;;11.30;4.15;;;;;;;;;;4855166;29;20038;-73
2021/11/10 09:07:04;;;;;;;13.18;5.90;;;;;;;;;;4838570;29;20056;-72
2021/11/10 09:09:31;;;;;;;12.70;4.70;;;;;;;;;;4838656;29;20037;-74
2021/11/10 09:11:57;;;;;;;15.13;5.70;;;;;;;;;;4838825;29;20038;-74
2021/11/10 09:14:25;;;;;;;10.70;5.10;;;;;;;;;;4807911;29;20038;-74
2021/11/10 09:16:51;;;;;;;18.55;6.68;;;;;;;;;;4838768;29;20605;-73
2021/11/10 09:19:22;;;;;;;15.00;6.28;;;;;;;;;;4808195;29;20045;-74
2021/11/10 09:21:48;;;;;;;17.60;6.25;;;;;;;;;;4838323;29;20038;-73
2021/11/10 09:24:21;;;;;;;17.67;3.95;;;;;;;;;;4823131;29;20038;-75
2021/11/10 09:26:48;;;;;;;12.13;5.97;;;;;;;;;;4822902;29;20082;-74
2021/11/10 09:29:16;;;;;;;19.13;6.07;;;;;;;;;;4838408;29;20625;-72
2021/11/10 09:31:47;;;;;;;13.55;5.30;;;;;;;;;;4838085;29;20049;-73
2021/11/10 09:34:14;;;;;;;15.50;6.28;;;;;;;;;;4823219;29;20049;-73
2021/11/10 09:36:48;;;;;;;16.52;6.22;;;;;;;;;;4838177;29;20042;-72
2021/11/10 09:39:24;;;;;;;18.00;5.63;;;;;;;;;;4854765;29;20380;-73
2021/11/10 09:41:54;;;;;;;14.30;5.85;;;;;;;;;;4832700;29;20038;-73
2021/11/10 09:44:21;;;;;;;14.05;6.55;;;;;;;;;;4822911;29;20038;-73
2021/11/10 09:46:48;;;;;;;16.50;6.10;;;;;;;;;;4837888;29;20030;-73
2021/11/10 09:49:14;;;;;;;19.95;6.50;;;;;;;;;;4837662;29;20139;-72
2021/11/10 09:51:44;;;;;;;17.00;6.25;;;;;;;;;;4822714;29;20054;-74
2021/11/10 09:54:11;;;;;;;17.08;6.32;;;;;;;;;;4837770;29;20054;-76
2021/11/10 09:56:46;;;;;;;16.20;5.15;;;;;;;;;;4837803;29;20086;-74
2021/11/10 09:59:12;;;;;;;14.35;5.93;;;;;;;;;;4822599;29;20045;-73
2021/11/10 10:01:39;;;;;;;13.52;6.40;;;;;;;;;;4837685;29;20459;-74
2021/11/10 10:04:07;;;;;;;13.48;6.20;;;;;;;;;;4838145;29;20400;-73
2021/11/10 10:06:48;;;;;;;16.13;6.15;;;;;;;;;;4854511;29;20045;-72
2021/11/10 10:09:14;;;;;;;16.02;6.30;;;;;;;;;;4838319;29;20142;-72
2021/11/10 10:11:41;;;;;;;12.80;5.47;;;;;;;;;;4837985;29;20076;-74
2021/11/10 10:14:06;;;;;;;17.77;7.03;;;;;;;;;;4837563;29;20045;-73
2021/11/10 10:16:35;;;;;;;13.93;6.50;;;;;;;;;;4854673;29;20034;-73
2021/11/10 10:19:09;;;;;;;14.13;5.78;;;;;;;;;;4838081;29;20186;-74
2021/11/10 10:21:40;;;;;;;13.43;5.43;;;;;;;;;;4822037;29;20045;-73
2021/11/10 10:24:15;;;;;;;18.73;6.15;;;;;;;;;;4837758;29;20244;-74
2021/11/10 10:26:41;;;;;;;17.40;6.28;;;;;;;;;;4837765;29;20395;-73
2021/11/10 10:29:10;;;;;;;20.67;6.13;;;;;;;;;;4838039;29;20125;-76
2021/11/10 10:31:46;;;;;;;11.40;5.90;;;;;;;;;;4837359;29;20092;-76
2021/11/10 10:34:14;;;;;;;15.38;5.75;;;;;;;;;;4837088;29;20050;-76
2021/11/10 10:36:44;;;;;;;10.85;5.00;;;;;;;;;;4838156;29;20053;-75
2021/11/10 10:39:27;;;;;;;14.68;6.75;;;;;;;;;;4854089;29;20126;-74
2021/11/10 10:41:53;;;;;;;16.23;6.35;;;;;;;;;;4854099;29;20038;-73
2021/11/10 10:44:22;;;;;;;17.48;6.95;;;;;;;;;;4822372;29;20487;-78
2021/11/10 10:46:59;;;;;;;16.90;7.22;;;;;;;;;;4837118;29;20038;-75
2021/11/10 10:49:39;;;;;;;17.85;7.55;;;;;;;;;;4837850;29;20037;-73
2021/11/10 10:52:19;;;;;;;19.27;7.47;;;;;;;;;;4822120;29;20109;-73
2021/11/10 10:54:53;;;;;;;10.68;5.22;;;;;;;;;;4824674;29;20034;-74
2021/11/10 10:57:20;;;;;;;13.13;6.13;;;;;;;;;;4810943;29;20062;-75
2021/11/10 11:00:07;;;;;;;16.63;6.68;;;;;;;;;;4857203;29;20119;-74
2021/11/10 11:02:33;;;;;;;13.30;6.47;;;;;;;;;;4827188;29;20449;-74
2021/11/10 11:05:00;;;;;;;17.25;5.78;;;;;;;;;;4825513;29;20135;-75
2021/11/10 11:07:31;;;;;;;17.35;7.10;;;;;;;;;;4840243;29;20038;-76
2021/11/10 11:10:25;;;;;;;14.10;6.30;;;;;;;;;;4840496;29;20033;-73
2021/11/10 11:12:53;;;;;;;;;;;;;;;;;;4857041;29;20098;-75
2021/11/10 11:17:50;;;;;;;13.00;5.85;;;;;;;;;;4857222;29;20034;-74
2021/11/10 11:20:29;;;;;;;14.20;6.45;;;;;;;;;;4839703;29;20034;-75
2021/11/10 11:22:57;;;;;;;14.00;5.65;;;;;;;;;;4839879;29;20037;-74
2021/11/10 11:25:31;;;;;;;14.52;5.97;;;;;;;;;;4840225;29;20132;-74
2021/11/10 11:28:04;;;;;;;12.38;5.68;;;;;;;;;;4839670;29;20038;-75
2021/11/10 11:30:55;;;;;;;23.13;7.15;;;;;;;;;;4840282;29;20058;-74
2021/11/10 11:33:22;;;;;;;8.57;4.72;;;;;;;;;;4839300;29;20073;-75
2021/11/10 11:36:02;;;;;;;9.93;5.22;;;;;;;;;;4839806;29;20102;-75
2021/11/10 11:38:46;;;;;;;15.75;6.20;;;;;;;;;;4839477;29;20030;-76
2021/11/10 11:41:15;;;;;;;16.65;6.93;;;;;;;;;;4840120;29;20037;-74
2021/11/10 11:43:44;;;;;;;10.93;5.10;;;;;;;;;;4838908;29;20523;-74
2021/11/10 11:46:10;;;;;;;11.57;5.50;;;;;;;;;;4839851;29;20136;-75
2021/11/10 11:48:55;;;;;;;16.73;5.68;;;;;;;;;;4830933;29;20069;-75
2021/11/10 11:54:49;;;;;;;13.75;6.43;;;;;;;;;;4844697;29;20045;-73
2021/11/10 11:57:21;;;;;;;13.38;5.72;;;;;;;;;;4839143;29;20045;-74
2021/11/10 11:59:51;;;;;;;8.73;4.75;;;;;;;;;;4839294;29;20098;-77
2021/11/10 12:02:44;;;;;;;16.30;7.55;;;;;;;;;;4839839;29;20038;-77
2021/11/10 12:07:58;;;;;;;13.75;5.65;;;;;;;;;;4856269;29;20049;-73
2021/11/10 12:10:30;;;;;;;8.30;4.82;;;;;;;;;;4839456;29;20121;-75
2021/11/10 12:13:36;;;;;;;19.55;7.15;;;;;;;;;;4856129;29;20082;-75
2021/11/10 12:16:17;;;;;;;9.20;4.93;;;;;;;;;;4855868;29;20069;-74
2021/11/10 12:18:49;;;;;;;16.02;6.13;;;;;;;;;;4839141;29;20045;-75
2021/11/10 12:21:34;;;;;;;13.70;5.38;;;;;;;;;;4855881;29;20038;-75
2021/11/10 12:24:23;;;;;;;14.15;6.13;;;;;;;;;;4855583;29;20040;-75
2021/11/10 12:27:37;;;;;;;9.93;5.72;;;;;;;;;;4855527;29;20037;-75
2021/11/10 12:30:12;;;;;;;13.68;6.25;;;;;;;;;;4831889;29;20030;-74
2021/11/10 12:32:38;;;;;;;9.10;4.28;;;;;;;;;;4854564;29;20038;-75
2021/11/10 12:35:08;;;;;;;16.35;5.43;;;;;;;;;;4839287;29;20109;-77
2021/11/10 12:37:38;;;;;;;9.82;5.35;;;;;;;;;;4838548;29;20034;-75
2021/11/10 12:40:30;;;;;;;10.05;5.22;;;;;;;;;;4823370;29;20034;-76
2021/11/10 12:43:01;;;;;;;14.27;6.57;;;;;;;;;;4837950;29;20029;-74
2021/11/10 12:45:35;;;;;;;13.25;5.13;;;;;;;;;;4854782;29;20038;-78
2021/11/10 12:48:08;;;;;;;14.40;6.22;;;;;;;;;;4838573;29;20033;-77
2021/11/10 12:50:50;;;;;;;12.50;5.00;;;;;;;;;;4837280;29;20046;-74
2021/11/10 12:53:34;;;;;;;7.40;4.35;;;;;;;;;;4837613;29;20041;-78
2021/11/10 12:56:01;;;;;;;9.35;5.07;;;;;;;;;;4838580;29;20030;-76
2021/11/10 12:59:06;;;;;;;14.13;5.55;;;;;;;;;;4854173;29;20041;-75
2021/11/10 13:01:34;;;;;;;11.63;5.35;;;;;;;;;;4854298;29;20029;-77
2021/11/10 13:04:00;;;;;;;11.45;4.00;;;;;;;;;;4815652;29;20479;-77
2021/11/10 13:06:30;;;;;;;15.80;6.32;;;;;;;;;;4838285;29;20041;-74
2021/11/10 13:09:10;;;;;;;5.85;3.78;;;;;;;;;;4823820;29;20102;-74
2021/11/10 13:11:40;;;;;;;13.70;5.55;;;;;;;;;;4838541;29;20034;-74
2021/11/10 13:14:17;;;;;;;10.73;5.65;;;;;;;;;;4822909;29;20049;-76
2021/11/10 13:17:07;;;;;;;12.40;5.38;;;;;;;;;;4837318;29;20358;-76
2021/11/10 13:19:59;;;;;;;10.65;3.92;;;;;;;;;;4837723;29;20026;-75
2021/11/10 13:22:27;;;;;;;12.55;6.35;;;;;;;;;;4837209;29;20471;-77
2021/11/10 13:25:03;;;;;;;13.55;5.15;;;;;;;;;;4838265;29;20068;-78
2021/11/10 13:27:39;;;;;;;15.02;6.53;;;;;;;;;;4807875;29;20038;-76
2021/11/10 13:30:13;;;;;;;13.77;5.90;;;;;;;;;;4837711;29;20034;-73
2021/11/10 13:32:43;;;;;;;16.35;5.95;;;;;;;;;;4837664;29;20101;-75
2021/11/10 13:35:17;;;;;;;14.38;6.35;;;;;;;;;;4837876;29;20030;-77
2021/11/10 13:40:24;;;;;;;12.15;5.13;;;;;;;;;;4854327;29;20033;-77
2021/11/10 13:42:55;;;;;;;12.88;5.07;;;;;;;;;;4822996;29;20262;-77
2021/11/10 13:45:22;;;;;;;12.27;5.30;;;;;;;;;;4822716;29;20046;-75
2021/11/10 13:47:56;;;;;;;8.48;4.35;;;;;;;;;;4837376;29;20034;-75
2021/11/10 13:50:52;;;;;;;12.18;5.70;;;;;;;;;;4823522;29;20034;-74
2021/11/10 13:53:18;;;;;;;14.15;5.50;;;;;;;;;;4831503;29;20175;-75
2021/11/10 13:55:57;;;;;;;13.60;4.88;;;;;;;;;;4837975;29;20030;-76
2021/11/10 13:58:23;;;;;;;12.45;4.72;;;;;;;;;;4854701;29;20033;-75
2021/11/10 14:01:03;;;;;;;8.00;4.88;;;;;;;;;;4837950;29;20042;-75
2021/11/10 14:03:30;;;;;;;14.00;5.70;;;;;;;;;;4837519;29;20026;-77
2021/11/10 14:05:58;;;;;;;13.48;5.57;;;;;;;;;;4823192;29;20053;-74
2021/11/10 14:08:24;;;;;;;15.35;5.45;;;;;;;;;;4838018;29;20071;-75
2021/11/10 14:11:09;;;;;;;14.77;5.88;;;;;;;;;;4837770;29;20034;-74
2021/11/10 14:13:35;;;;;;;14.57;6.03;;;;;;;;;;4854742;29;20026;-75
2021/11/10 14:16:21;;;;;;;14.02;5.65;;;;;;;;;;4822818;29;20122;-73
2021/11/10 14:18:46;;;;;;;10.32;4.50;;;;;;;;;;4837741;29;20145;-80
2021/11/10 14:21:25;;;;;;;15.13;6.00;;;;;;;;;;4854151;29;20476;-75
2021/11/10 14:23:57;;;;;;;14.57;6.28;;;;;;;;;;4837324;29;20480;-74
2021/11/10 14:26:27;;;;;;;11.90;6.55;;;;;;;;;;4837860;29;20038;-74
2021/11/10 14:28:53;;;;;;;16.88;6.40;;;;;;;;;;4823682;29;20551;-76
2021/11/10 14:31:26;;;;;;;13.13;5.28;;;;;;;;;;4857500;29;20082;-76
2021/11/10 14:34:06;;;;;;;19.02;6.75;;;;;;;;;;4840776;29;20038;-74
2021/11/10 14:36:37;;;;;;;17.27;6.78;;;;;;;;;;4840526;29;20070;-74
2021/11/10 14:39:08;;;;;;;11.60;5.45;;;;;;;;;;4840137;29;20054;-76
2021/11/10 14:41:39;;;;;;;17.15;6.70;;;;;;;;;;4840216;29;20041;-74
2021/11/10 14:44:13;;;;;;;14.98;6.32;;;;;;;;;;4834129;29;20042;-75
2021/11/10 14:46:43;;;;;;;14.23;4.70;;;;;;;;;;4840588;29;20038;-76
2021/11/10 14:49:21;;;;;;;18.45;6.93;;;;;;;;;;4841269;29;20453;-73
2021/11/10 14:51:48;;;;;;;12.48;5.32;;;;;;;;;;4840380;29;20033;-75
2021/11/10 14:54:37;;;;;;;13.30;5.65;;;;;;;;;;4840747;29;20034;-75
2021/11/10 14:57:27;;;;;;;12.38;5.20;;;;;;;;;;4840552;29;20022;-74
2021/11/10 15:00:01;;;;;;;17.15;6.68;;;;;;;;;;4840785;29;20045;-77
2021/11/10 15:02:38;;;;;;;13.10;5.40;;;;;;;;;;4857356;29;20033;-74
2021/11/10 15:05:37;;;;;;;17.70;6.38;;;;;;;;;;4841098;29;20042;-73